sensor_id;sensor_type;location;lat;lon;timestamp;P1;durP1;ratioP1;P2;durP2;ratioP2
13102;SDS011;52970;46.752;17.108;2022-09-09T00:04:30;1.63;;;1.10;;
13102;SDS011;52970;46.752;17.108;2022-09-09T00:09:22;1.60;;;1.50;;
13102;SDS011;52970;46.752;17.108;2022-09-09T00:11:54;3.10;;;1.30;;
13102;SDS011;52970;46.752;17.108;2022-09-09T00:17:49;2.38;;;1.58;;
13102;SDS011;52970;46.752;17.108;2022-09-09T00:20:00;3.45;;;1.52;;
13102;SDS011;52970;46.752;17.108;2022-09-09T00:22:27;1.17;;;1.17;;
13102;SDS011;52970;46.752;17.108;2022-09-09T00:24:53;1.27;;;1.27;;
13102;SDS011;52970;46.752;17.108;2022-09-09T00:32:34;2.72;;;1.50;;
13102;SDS011;52970;46.752;17.108;2022-09-09T00:37:34;4.93;;;1.60;;
13102;SDS011;52970;46.752;17.108;2022-09-09T00:40:00;2.80;;;1.83;;
13102;SDS011;52970;46.752;17.108;2022-09-09T00:42:33;3.28;;;1.60;;
13102;SDS011;52970;46.752;17.108;2022-09-09T00:45:10;3.72;;;1.83;;
13102;SDS011;52970;46.752;17.108;2022-09-09T00:58:00;2.88;;;1.40;;
13102;SDS011;52970;46.752;17.108;2022-09-09T01:00:44;1.75;;;1.25;;
13102;SDS011;52970;46.752;17.108;2022-09-09T01:08:30;2.55;;;1.40;;
13102;SDS011;52970;46.752;17.108;2022-09-09T01:11:00;2.67;;;1.30;;
13102;SDS011;52970;46.752;17.108;2022-09-09T01:13:34;2.35;;;1.20;;
13102;SDS011;52970;46.752;17.108;2022-09-09T01:16:01;1.98;;;1.40;;
13102;SDS011;52970;46.752;17.108;2022-09-09T01:18:29;1.40;;;1.35;;
13102;SDS011;52970;46.752;17.108;2022-09-09T01:23:43;2.08;;;1.55;;
13102;SDS011;52970;46.752;17.108;2022-09-09T01:28:36;4.77;;;1.80;;
13102;SDS011;52970;46.752;17.108;2022-09-09T01:31:03;2.75;;;1.42;;
13102;SDS011;52970;46.752;17.108;2022-09-09T01:33:29;2.28;;;1.20;;
13102;SDS011;52970;46.752;17.108;2022-09-09T01:38:20;1.25;;;1.20;;
13102;SDS011;52970;46.752;17.108;2022-09-09T01:40:46;1.83;;;1.40;;
13102;SDS011;52970;46.752;17.108;2022-09-09T01:43:11;2.58;;;1.02;;
13102;SDS011;52970;46.752;17.108;2022-09-09T01:45:38;2.28;;;1.17;;
13102;SDS011;52970;46.752;17.108;2022-09-09T01:48:04;1.42;;;1.10;;
13102;SDS011;52970;46.752;17.108;2022-09-09T01:50:29;1.95;;;1.33;;
13102;SDS011;52970;46.752;17.108;2022-09-09T01:52:57;2.35;;;1.17;;
13102;SDS011;52970;46.752;17.108;2022-09-09T01:55:28;0.90;;;0.90;;
13102;SDS011;52970;46.752;17.108;2022-09-09T02:00:40;3.08;;;1.08;;
13102;SDS011;52970;46.752;17.108;2022-09-09T02:05:44;3.33;;;1.10;;
13102;SDS011;52970;46.752;17.108;2022-09-09T02:08:14;2.03;;;1.10;;
13102;SDS011;52970;46.752;17.108;2022-09-09T02:10:48;1.17;;;1.10;;
13102;SDS011;52970;46.752;17.108;2022-09-09T02:13:18;1.98;;;1.25;;
13102;SDS011;52970;46.752;17.108;2022-09-09T02:18:30;2.15;;;1.30;;
13102;SDS011;52970;46.752;17.108;2022-09-09T02:20:57;3.58;;;1.45;;
13102;SDS011;52970;46.752;17.108;2022-09-09T02:23:23;1.45;;;1.15;;
13102;SDS011;52970;46.752;17.108;2022-09-09T02:25:48;3.20;;;1.40;;
13102;SDS011;52970;46.752;17.108;2022-09-09T02:28:16;2.40;;;1.52;;
13102;SDS011;52970;46.752;17.108;2022-09-09T02:30:43;1.63;;;1.10;;
13102;SDS011;52970;46.752;17.108;2022-09-09T02:33:11;1.90;;;1.25;;
13102;SDS011;52970;46.752;17.108;2022-09-09T02:35:38;3.55;;;1.10;;
13102;SDS011;52970;46.752;17.108;2022-09-09T02:38:04;1.13;;;1.02;;
13102;SDS011;52970;46.752;17.108;2022-09-09T02:40:31;2.00;;;1.00;;
13102;SDS011;52970;46.752;17.108;2022-09-09T02:42:57;1.48;;;1.10;;
13102;SDS011;52970;46.752;17.108;2022-09-09T02:45:23;1.30;;;1.20;;
13102;SDS011;52970;46.752;17.108;2022-09-09T02:55:54;1.50;;;1.00;;
13102;SDS011;52970;46.752;17.108;2022-09-09T02:58:20;2.55;;;1.10;;
13102;SDS011;52970;46.752;17.108;2022-09-09T03:00:46;4.95;;;1.30;;
13102;SDS011;52970;46.752;17.108;2022-09-09T03:03:12;2.65;;;1.60;;
13102;SDS011;52970;46.752;17.108;2022-09-09T03:05:37;1.95;;;1.10;;
13102;SDS011;52970;46.752;17.108;2022-09-09T03:08:03;0.88;;;0.80;;
13102;SDS011;52970;46.752;17.108;2022-09-09T03:10:30;1.08;;;1.08;;
13102;SDS011;52970;46.752;17.108;2022-09-09T03:12:55;4.05;;;1.35;;
13102;SDS011;52970;46.752;17.108;2022-09-09T03:15:21;1.65;;;0.90;;
13102;SDS011;52970;46.752;17.108;2022-09-09T03:17:46;5.47;;;1.20;;
13102;SDS011;52970;46.752;17.108;2022-09-09T03:20:12;4.20;;;1.63;;
13102;SDS011;52970;46.752;17.108;2022-09-09T03:22:37;1.42;;;1.23;;
13102;SDS011;52970;46.752;17.108;2022-09-09T03:25:02;3.05;;;1.40;;
13102;SDS011;52970;46.752;17.108;2022-09-09T03:27:28;4.40;;;1.38;;
13102;SDS011;52970;46.752;17.108;2022-09-09T03:29:53;2.90;;;1.30;;
13102;SDS011;52970;46.752;17.108;2022-09-09T03:32:19;3.40;;;1.70;;
13102;SDS011;52970;46.752;17.108;2022-09-09T03:34:47;4.20;;;1.15;;
13102;SDS011;52970;46.752;17.108;2022-09-09T03:37:14;4.20;;;1.50;;
13102;SDS011;52970;46.752;17.108;2022-09-09T03:39:40;2.13;;;1.80;;
13102;SDS011;52970;46.752;17.108;2022-09-09T03:42:05;1.70;;;1.60;;
13102;SDS011;52970;46.752;17.108;2022-09-09T03:44:30;1.95;;;1.48;;
13102;SDS011;52970;46.752;17.108;2022-09-09T03:46:56;2.67;;;1.50;;
13102;SDS011;52970;46.752;17.108;2022-09-09T03:49:21;3.40;;;1.40;;
13102;SDS011;52970;46.752;17.108;2022-09-09T03:51:47;4.68;;;1.80;;
13102;SDS011;52970;46.752;17.108;2022-09-09T03:54:13;1.30;;;1.30;;
13102;SDS011;52970;46.752;17.108;2022-09-09T03:56:38;4.07;;;2.40;;
13102;SDS011;52970;46.752;17.108;2022-09-09T03:59:06;2.80;;;1.77;;
13102;SDS011;52970;46.752;17.108;2022-09-09T04:01:31;1.73;;;1.50;;
13102;SDS011;52970;46.752;17.108;2022-09-09T04:03:56;4.35;;;2.22;;
13102;SDS011;52970;46.752;17.108;2022-09-09T04:06:23;3.63;;;2.00;;
13102;SDS011;52970;46.752;17.108;2022-09-09T04:08:48;2.50;;;1.50;;
13102;SDS011;52970;46.752;17.108;2022-09-09T04:11:14;1.40;;;1.30;;
13102;SDS011;52970;46.752;17.108;2022-09-09T04:13:40;2.58;;;1.70;;
13102;SDS011;52970;46.752;17.108;2022-09-09T04:16:07;3.20;;;1.40;;
13102;SDS011;52970;46.752;17.108;2022-09-09T04:18:33;2.22;;;1.40;;
13102;SDS011;52970;46.752;17.108;2022-09-09T04:20:59;3.75;;;1.50;;
13102;SDS011;52970;46.752;17.108;2022-09-09T04:23:25;3.80;;;1.60;;
13102;SDS011;52970;46.752;17.108;2022-09-09T04:25:52;4.10;;;2.40;;
13102;SDS011;52970;46.752;17.108;2022-09-09T04:28:18;2.35;;;1.70;;
13102;SDS011;52970;46.752;17.108;2022-09-09T04:30:44;2.80;;;1.48;;
13102;SDS011;52970;46.752;17.108;2022-09-09T04:33:10;3.13;;;1.73;;
13102;SDS011;52970;46.752;17.108;2022-09-09T04:35:35;2.28;;;1.65;;
13102;SDS011;52970;46.752;17.108;2022-09-09T04:38:01;3.58;;;1.67;;
13102;SDS011;52970;46.752;17.108;2022-09-09T04:40:27;1.58;;;1.40;;
13102;SDS011;52970;46.752;17.108;2022-09-09T04:42:53;4.85;;;1.80;;
13102;SDS011;52970;46.752;17.108;2022-09-09T04:45:18;1.70;;;1.50;;
13102;SDS011;52970;46.752;17.108;2022-09-09T04:47:43;3.28;;;1.63;;
13102;SDS011;52970;46.752;17.108;2022-09-09T04:50:08;2.42;;;2.05;;
13102;SDS011;52970;46.752;17.108;2022-09-09T04:52:34;5.70;;;2.33;;
13102;SDS011;52970;46.752;17.108;2022-09-09T04:55:00;2.67;;;1.63;;
13102;SDS011;52970;46.752;17.108;2022-09-09T04:57:26;3.10;;;2.03;;
13102;SDS011;52970;46.752;17.108;2022-09-09T04:59:51;3.53;;;1.90;;
13102;SDS011;52970;46.752;17.108;2022-09-09T05:02:16;1.30;;;1.23;;
13102;SDS011;52970;46.752;17.108;2022-09-09T05:04:42;2.15;;;1.70;;
13102;SDS011;52970;46.752;17.108;2022-09-09T05:07:07;1.98;;;1.80;;
13102;SDS011;52970;46.752;17.108;2022-09-09T05:09:33;2.70;;;1.52;;
13102;SDS011;52970;46.752;17.108;2022-09-09T05:11:58;2.00;;;1.42;;
13102;SDS011;52970;46.752;17.108;2022-09-09T05:14:23;2.28;;;1.67;;
13102;SDS011;52970;46.752;17.108;2022-09-09T05:16:48;1.92;;;1.80;;
13102;SDS011;52970;46.752;17.108;2022-09-09T05:19:14;2.55;;;2.35;;
13102;SDS011;52970;46.752;17.108;2022-09-09T05:21:39;2.90;;;2.20;;
13102;SDS011;52970;46.752;17.108;2022-09-09T05:24:06;1.90;;;1.80;;
13102;SDS011;52970;46.752;17.108;2022-09-09T05:26:32;4.15;;;1.90;;
13102;SDS011;52970;46.752;17.108;2022-09-09T05:28:57;1.70;;;1.60;;
13102;SDS011;52970;46.752;17.108;2022-09-09T05:31:24;3.55;;;1.70;;
13102;SDS011;52970;46.752;17.108;2022-09-09T05:33:52;4.20;;;2.10;;
13102;SDS011;52970;46.752;17.108;2022-09-09T05:36:19;3.13;;;1.95;;
13102;SDS011;52970;46.752;17.108;2022-09-09T05:38:45;4.65;;;2.42;;
13102;SDS011;52970;46.752;17.108;2022-09-09T05:41:10;5.43;;;2.80;;
13102;SDS011;52970;46.752;17.108;2022-09-09T05:43:36;4.65;;;2.50;;
13102;SDS011;52970;46.752;17.108;2022-09-09T05:46:03;3.45;;;2.40;;
13102;SDS011;52970;46.752;17.108;2022-09-09T05:48:33;1.40;;;1.40;;
13102;SDS011;52970;46.752;17.108;2022-09-09T05:50:59;3.05;;;2.05;;
13102;SDS011;52970;46.752;17.108;2022-09-09T05:53:25;3.33;;;1.92;;
13102;SDS011;52970;46.752;17.108;2022-09-09T05:55:50;4.18;;;1.85;;
13102;SDS011;52970;46.752;17.108;2022-09-09T05:58:22;7.03;;;2.50;;
13102;SDS011;52970;46.752;17.108;2022-09-09T06:00:49;2.15;;;1.95;;
13102;SDS011;52970;46.752;17.108;2022-09-09T06:03:15;6.65;;;2.42;;
13102;SDS011;52970;46.752;17.108;2022-09-09T06:05:41;12.50;;;3.08;;
13102;SDS011;52970;46.752;17.108;2022-09-09T06:08:07;9.15;;;2.80;;
13102;SDS011;52970;46.752;17.108;2022-09-09T06:10:32;8.65;;;2.75;;
13102;SDS011;52970;46.752;17.108;2022-09-09T06:12:59;5.85;;;2.95;;
13102;SDS011;52970;46.752;17.108;2022-09-09T06:15:24;5.00;;;2.30;;
13102;SDS011;52970;46.752;17.108;2022-09-09T06:17:53;7.15;;;2.50;;
13102;SDS011;52970;46.752;17.108;2022-09-09T06:20:19;4.30;;;2.00;;
13102;SDS011;52970;46.752;17.108;2022-09-09T06:22:45;3.10;;;2.47;;
13102;SDS011;52970;46.752;17.108;2022-09-09T06:25:11;4.07;;;2.80;;
13102;SDS011;52970;46.752;17.108;2022-09-09T06:27:37;2.15;;;1.95;;
13102;SDS011;52970;46.752;17.108;2022-09-09T06:30:02;4.53;;;2.22;;
13102;SDS011;52970;46.752;17.108;2022-09-09T06:32:28;3.05;;;1.70;;
13102;SDS011;52970;46.752;17.108;2022-09-09T06:34:53;2.53;;;1.42;;
13102;SDS011;52970;46.752;17.108;2022-09-09T06:37:19;2.67;;;1.55;;
13102;SDS011;52970;46.752;17.108;2022-09-09T06:39:45;1.58;;;1.55;;
13102;SDS011;52970;46.752;17.108;2022-09-09T06:42:10;4.05;;;1.70;;
13102;SDS011;52970;46.752;17.108;2022-09-09T06:44:35;5.50;;;2.40;;
13102;SDS011;52970;46.752;17.108;2022-09-09T06:47:01;4.25;;;1.52;;
13102;SDS011;52970;46.752;17.108;2022-09-09T06:49:26;5.43;;;1.98;;
13102;SDS011;52970;46.752;17.108;2022-09-09T06:51:51;4.77;;;1.90;;
13102;SDS011;52970;46.752;17.108;2022-09-09T06:54:17;1.60;;;1.50;;
13102;SDS011;52970;46.752;17.108;2022-09-09T06:56:43;4.15;;;2.10;;
13102;SDS011;52970;46.752;17.108;2022-09-09T06:59:10;3.78;;;2.20;;
13102;SDS011;52970;46.752;17.108;2022-09-09T07:01:40;4.22;;;2.20;;
13102;SDS011;52970;46.752;17.108;2022-09-09T07:04:06;2.63;;;1.95;;
13102;SDS011;52970;46.752;17.108;2022-09-09T07:06:34;2.50;;;2.03;;
13102;SDS011;52970;46.752;17.108;2022-09-09T07:09:00;2.30;;;1.98;;
13102;SDS011;52970;46.752;17.108;2022-09-09T07:11:27;5.43;;;1.92;;
13102;SDS011;52970;46.752;17.108;2022-09-09T07:13:53;4.43;;;2.40;;
13102;SDS011;52970;46.752;17.108;2022-09-09T07:16:19;3.10;;;2.40;;
13102;SDS011;52970;46.752;17.108;2022-09-09T07:18:45;1.98;;;1.80;;
13102;SDS011;52970;46.752;17.108;2022-09-09T07:21:11;2.35;;;2.15;;
13102;SDS011;52970;46.752;17.108;2022-09-09T07:23:37;2.17;;;2.05;;
13102;SDS011;52970;46.752;17.108;2022-09-09T07:26:07;3.60;;;2.10;;
13102;SDS011;52970;46.752;17.108;2022-09-09T07:28:32;3.75;;;2.15;;
13102;SDS011;52970;46.752;17.108;2022-09-09T07:31:01;2.83;;;2.55;;
13102;SDS011;52970;46.752;17.108;2022-09-09T07:33:27;2.30;;;2.10;;
13102;SDS011;52970;46.752;17.108;2022-09-09T07:36:01;3.35;;;1.90;;
13102;SDS011;52970;46.752;17.108;2022-09-09T07:38:26;2.17;;;1.67;;
13102;SDS011;52970;46.752;17.108;2022-09-09T07:40:52;2.00;;;1.90;;
13102;SDS011;52970;46.752;17.108;2022-09-09T07:43:17;3.88;;;1.98;;
13102;SDS011;52970;46.752;17.108;2022-09-09T07:45:43;2.55;;;1.83;;
13102;SDS011;52970;46.752;17.108;2022-09-09T07:48:09;1.70;;;1.60;;
13102;SDS011;52970;46.752;17.108;2022-09-09T07:50:34;2.05;;;1.90;;
13102;SDS011;52970;46.752;17.108;2022-09-09T07:52:59;2.00;;;1.90;;
13102;SDS011;52970;46.752;17.108;2022-09-09T07:55:25;1.80;;;1.70;;
13102;SDS011;52970;46.752;17.108;2022-09-09T07:57:52;3.35;;;1.98;;
13102;SDS011;52970;46.752;17.108;2022-09-09T08:00:18;1.85;;;1.50;;
13102;SDS011;52970;46.752;17.108;2022-09-09T08:02:44;1.48;;;1.40;;
13102;SDS011;52970;46.752;17.108;2022-09-09T08:05:10;1.77;;;1.38;;
13102;SDS011;52970;46.752;17.108;2022-09-09T08:07:36;1.52;;;1.35;;
13102;SDS011;52970;46.752;17.108;2022-09-09T08:10:02;1.40;;;1.30;;
13102;SDS011;52970;46.752;17.108;2022-09-09T08:12:27;1.15;;;1.15;;
13102;SDS011;52970;46.752;17.108;2022-09-09T08:14:52;2.72;;;1.30;;
13102;SDS011;52970;46.752;17.108;2022-09-09T08:17:19;2.03;;;1.60;;
13102;SDS011;52970;46.752;17.108;2022-09-09T08:19:44;2.47;;;1.50;;
13102;SDS011;52970;46.752;17.108;2022-09-09T08:22:09;1.40;;;1.30;;
13102;SDS011;52970;46.752;17.108;2022-09-09T08:24:34;1.58;;;1.48;;
13102;SDS011;52970;46.752;17.108;2022-09-09T08:27:00;1.45;;;1.35;;
13102;SDS011;52970;46.752;17.108;2022-09-09T08:29:26;1.50;;;1.40;;
13102;SDS011;52970;46.752;17.108;2022-09-09T08:31:53;1.50;;;1.30;;
13102;SDS011;52970;46.752;17.108;2022-09-09T08:34:22;4.35;;;1.40;;
13102;SDS011;52970;46.752;17.108;2022-09-09T08:36:48;1.20;;;1.20;;
13102;SDS011;52970;46.752;17.108;2022-09-09T08:39:14;1.30;;;1.20;;
13102;SDS011;52970;46.752;17.108;2022-09-09T08:52:00;2.15;;;1.30;;
13102;SDS011;52970;46.752;17.108;2022-09-09T08:54:26;1.88;;;1.13;;
13102;SDS011;52970;46.752;17.108;2022-09-09T08:56:55;1.20;;;1.10;;
13102;SDS011;52970;46.752;17.108;2022-09-09T08:59:21;2.83;;;1.70;;
13102;SDS011;52970;46.752;17.108;2022-09-09T09:10:04;1.23;;;1.20;;
13102;SDS011;52970;46.752;17.108;2022-09-09T09:12:39;1.35;;;1.25;;
13102;SDS011;52970;46.752;17.108;2022-09-09T09:15:39;1.42;;;1.33;;
13102;SDS011;52970;46.752;17.108;2022-09-09T09:17:59;1.95;;;1.25;;
13102;SDS011;52970;46.752;17.108;2022-09-09T09:20:34;1.60;;;1.50;;
13102;SDS011;52970;46.752;17.108;2022-09-09T09:23:04;1.65;;;1.40;;
13102;SDS011;52970;46.752;17.108;2022-09-09T09:25:34;2.95;;;1.30;;
13102;SDS011;52970;46.752;17.108;2022-09-09T09:28:02;2.05;;;1.15;;
13102;SDS011;52970;46.752;17.108;2022-09-09T09:30:41;1.55;;;1.25;;
13102;SDS011;52970;46.752;17.108;2022-09-09T09:35:51;1.10;;;1.02;;
13102;SDS011;52970;46.752;17.108;2022-09-09T09:38:24;1.40;;;1.30;;
13102;SDS011;52970;46.752;17.108;2022-09-09T09:40:53;1.55;;;1.20;;
13102;SDS011;52970;46.752;17.108;2022-09-09T09:43:33;1.40;;;1.30;;
13102;SDS011;52970;46.752;17.108;2022-09-09T09:45:58;1.10;;;1.10;;
13102;SDS011;52970;46.752;17.108;2022-09-09T09:48:24;1.35;;;1.25;;
13102;SDS011;52970;46.752;17.108;2022-09-09T09:53:44;1.40;;;1.30;;
13102;SDS011;52970;46.752;17.108;2022-09-09T09:56:11;1.33;;;1.30;;
13102;SDS011;52970;46.752;17.108;2022-09-09T10:01:25;2.45;;;1.20;;
13102;SDS011;52970;46.752;17.108;2022-09-09T10:03:58;1.63;;;1.35;;
13102;SDS011;52970;46.752;17.108;2022-09-09T10:06:34;1.05;;;1.05;;
13102;SDS011;52970;46.752;17.108;2022-09-09T10:09:00;1.42;;;1.30;;
13102;SDS011;52970;46.752;17.108;2022-09-09T10:19:05;1.15;;;1.08;;
13102;SDS011;52970;46.752;17.108;2022-09-09T10:26:46;1.67;;;1.13;;
13102;SDS011;52970;46.752;17.108;2022-09-09T10:36:56;1.20;;;1.10;;
13102;SDS011;52970;46.752;17.108;2022-09-09T10:42:05;1.10;;;1.10;;
13102;SDS011;52970;46.752;17.108;2022-09-09T10:52:09;1.30;;;1.20;;
13102;SDS011;52970;46.752;17.108;2022-09-09T10:57:08;1.27;;;1.20;;
13102;SDS011;52970;46.752;17.108;2022-09-09T10:59:38;1.85;;;1.30;;
13102;SDS011;52970;46.752;17.108;2022-09-09T11:02:07;1.52;;;1.30;;
13102;SDS011;52970;46.752;17.108;2022-09-09T11:04:45;2.05;;;1.10;;
13102;SDS011;52970;46.752;17.108;2022-09-09T11:07:14;2.08;;;1.25;;
13102;SDS011;52970;46.752;17.108;2022-09-09T11:09:46;2.40;;;1.25;;
13102;SDS011;52970;46.752;17.108;2022-09-09T11:12:17;1.75;;;1.15;;
13102;SDS011;52970;46.752;17.108;2022-09-09T11:14:45;1.23;;;1.10;;
13102;SDS011;52970;46.752;17.108;2022-09-09T11:17:31;1.77;;;1.20;;
13102;SDS011;52970;46.752;17.108;2022-09-09T11:19:58;1.02;;;1.02;;
13102;SDS011;52970;46.752;17.108;2022-09-09T11:42:31;1.20;;;1.10;;
13102;SDS011;52970;46.752;17.108;2022-09-09T11:44:56;1.92;;;1.20;;
13102;SDS011;52970;46.752;17.108;2022-09-09T11:47:23;1.15;;;1.10;;
13102;SDS011;52970;46.752;17.108;2022-09-09T11:52:40;1.70;;;1.13;;
13102;SDS011;52970;46.752;17.108;2022-09-09T11:55:59;1.45;;;1.02;;
13102;SDS011;52970;46.752;17.108;2022-09-09T11:57:59;1.20;;;1.10;;
13102;SDS011;52970;46.752;17.108;2022-09-09T12:00:35;0.80;;;0.80;;
13102;SDS011;52970;46.752;17.108;2022-09-09T12:03:02;1.33;;;1.10;;
13102;SDS011;52970;46.752;17.108;2022-09-09T12:05:44;3.30;;;1.10;;
13102;SDS011;52970;46.752;17.108;2022-09-09T12:08:11;1.20;;;1.20;;
13102;SDS011;52970;46.752;17.108;2022-09-09T12:10:40;1.33;;;1.25;;
13102;SDS011;52970;46.752;17.108;2022-09-09T12:13:22;1.42;;;1.33;;
13102;SDS011;52970;46.752;17.108;2022-09-09T12:15:58;2.17;;;0.80;;
13102;SDS011;52970;46.752;17.108;2022-09-09T12:18:31;0.93;;;0.93;;
13102;SDS011;52970;46.752;17.108;2022-09-09T12:23:58;1.75;;;1.00;;
13102;SDS011;52970;46.752;17.108;2022-09-09T12:26:27;1.40;;;1.27;;
13102;SDS011;52970;46.752;17.108;2022-09-09T12:29:06;1.30;;;1.02;;
13102;SDS011;52970;46.752;17.108;2022-09-09T12:31:37;1.10;;;1.00;;
13102;SDS011;52970;46.752;17.108;2022-09-09T12:34:08;1.13;;;1.00;;
13102;SDS011;52970;46.752;17.108;2022-09-09T12:36:35;1.17;;;0.90;;
13102;SDS011;52970;46.752;17.108;2022-09-09T12:39:09;1.25;;;1.15;;
13102;SDS011;52970;46.752;17.108;2022-09-09T12:41:36;1.45;;;1.15;;
13102;SDS011;52970;46.752;17.108;2022-09-09T12:44:05;1.02;;;1.00;;
13102;SDS011;52970;46.752;17.108;2022-09-09T12:46:35;1.10;;;1.10;;
13102;SDS011;52970;46.752;17.108;2022-09-09T12:49:01;0.85;;;0.85;;
13102;SDS011;52970;46.752;17.108;2022-09-09T12:51:28;1.80;;;1.10;;
13102;SDS011;52970;46.752;17.108;2022-09-09T12:53:54;1.40;;;1.30;;
13102;SDS011;52970;46.752;17.108;2022-09-09T12:56:20;0.90;;;0.90;;
13102;SDS011;52970;46.752;17.108;2022-09-09T12:58:47;1.17;;;1.10;;
13102;SDS011;52970;46.752;17.108;2022-09-09T13:01:26;3.17;;;1.10;;
13102;SDS011;52970;46.752;17.108;2022-09-09T13:03:53;1.75;;;0.70;;
13102;SDS011;52970;46.752;17.108;2022-09-09T13:06:32;2.75;;;1.10;;
13102;SDS011;52970;46.752;17.108;2022-09-09T13:08:58;1.00;;;1.00;;
13102;SDS011;52970;46.752;17.108;2022-09-09T13:11:34;1.88;;;1.10;;
13102;SDS011;52970;46.752;17.108;2022-09-09T13:14:00;1.08;;;0.95;;
13102;SDS011;52970;46.752;17.108;2022-09-09T13:16:26;0.93;;;0.90;;
13102;SDS011;52970;46.752;17.108;2022-09-09T13:18:58;2.15;;;0.90;;
13102;SDS011;52970;46.752;17.108;2022-09-09T13:21:33;0.98;;;0.98;;
13102;SDS011;52970;46.752;17.108;2022-09-09T13:23:59;1.00;;;1.00;;
13102;SDS011;52970;46.752;17.108;2022-09-09T13:26:28;1.08;;;1.00;;
13102;SDS011;52970;46.752;17.108;2022-09-09T13:28:55;1.05;;;1.00;;
13102;SDS011;52970;46.752;17.108;2022-09-09T13:31:33;1.67;;;1.00;;
13102;SDS011;52970;46.752;17.108;2022-09-09T13:33:58;2.38;;;1.13;;
13102;SDS011;52970;46.752;17.108;2022-09-09T13:36:30;2.03;;;1.30;;
13102;SDS011;52970;46.752;17.108;2022-09-09T13:38:56;1.10;;;1.00;;
13102;SDS011;52970;46.752;17.108;2022-09-09T13:41:26;1.85;;;0.95;;
13102;SDS011;52970;46.752;17.108;2022-09-09T13:43:53;1.30;;;1.20;;
13102;SDS011;52970;46.752;17.108;2022-09-09T13:49:34;1.50;;;1.10;;
13102;SDS011;52970;46.752;17.108;2022-09-09T13:51:44;1.10;;;1.10;;
13102;SDS011;52970;46.752;17.108;2022-09-09T13:54:13;2.08;;;1.20;;
13102;SDS011;52970;46.752;17.108;2022-09-09T13:56:38;1.98;;;0.90;;
13102;SDS011;52970;46.752;17.108;2022-09-09T13:59:05;1.75;;;1.23;;
13102;SDS011;52970;46.752;17.108;2022-09-09T14:01:30;0.82;;;0.82;;
13102;SDS011;52970;46.752;17.108;2022-09-09T14:03:58;2.10;;;0.98;;
13102;SDS011;52970;46.752;17.108;2022-09-09T14:06:23;2.17;;;1.25;;
13102;SDS011;52970;46.752;17.108;2022-09-09T14:08:49;0.93;;;0.93;;
13102;SDS011;52970;46.752;17.108;2022-09-09T14:11:15;0.95;;;0.90;;
13102;SDS011;52970;46.752;17.108;2022-09-09T14:13:40;1.00;;;0.90;;
13102;SDS011;52970;46.752;17.108;2022-09-09T14:16:05;1.23;;;1.13;;
13102;SDS011;52970;46.752;17.108;2022-09-09T14:18:31;0.90;;;0.90;;
13102;SDS011;52970;46.752;17.108;2022-09-09T14:20:56;2.25;;;1.05;;
13102;SDS011;52970;46.752;17.108;2022-09-09T14:23:23;0.95;;;0.95;;
13102;SDS011;52970;46.752;17.108;2022-09-09T14:25:49;1.55;;;1.10;;
13102;SDS011;52970;46.752;17.108;2022-09-09T14:28:15;1.17;;;1.00;;
13102;SDS011;52970;46.752;17.108;2022-09-09T14:30:40;1.88;;;1.10;;
13102;SDS011;52970;46.752;17.108;2022-09-09T14:33:07;1.50;;;1.00;;
13102;SDS011;52970;46.752;17.108;2022-09-09T14:35:33;0.90;;;0.90;;
13102;SDS011;52970;46.752;17.108;2022-09-09T14:37:58;1.55;;;1.15;;
13102;SDS011;52970;46.752;17.108;2022-09-09T14:40:24;1.25;;;1.15;;
13102;SDS011;52970;46.752;17.108;2022-09-09T14:42:49;1.17;;;1.08;;
13102;SDS011;52970;46.752;17.108;2022-09-09T14:45:14;1.58;;;0.90;;
13102;SDS011;52970;46.752;17.108;2022-09-09T14:47:39;1.20;;;1.10;;
13102;SDS011;52970;46.752;17.108;2022-09-09T14:50:05;0.95;;;0.93;;
13102;SDS011;52970;46.752;17.108;2022-09-09T14:52:31;0.90;;;0.90;;
13102;SDS011;52970;46.752;17.108;2022-09-09T14:54:56;2.47;;;1.40;;
13102;SDS011;52970;46.752;17.108;2022-09-09T14:57:22;1.08;;;1.05;;
13102;SDS011;52970;46.752;17.108;2022-09-09T14:59:47;1.73;;;1.20;;
13102;SDS011;52970;46.752;17.108;2022-09-09T15:02:15;1.42;;;1.10;;
13102;SDS011;52970;46.752;17.108;2022-09-09T15:04:40;1.45;;;1.33;;
13102;SDS011;52970;46.752;17.108;2022-09-09T15:07:05;1.48;;;1.00;;
13102;SDS011;52970;46.752;17.108;2022-09-09T15:09:30;1.00;;;1.00;;
13102;SDS011;52970;46.752;17.108;2022-09-09T15:11:56;1.20;;;1.10;;
13102;SDS011;52970;46.752;17.108;2022-09-09T15:14:21;1.17;;;1.10;;
13102;SDS011;52970;46.752;17.108;2022-09-09T15:16:46;1.08;;;1.00;;
13102;SDS011;52970;46.752;17.108;2022-09-09T15:19:12;1.15;;;0.98;;
13102;SDS011;52970;46.752;17.108;2022-09-09T15:21:37;0.90;;;0.90;;
13102;SDS011;52970;46.752;17.108;2022-09-09T15:24:03;1.40;;;1.25;;
13102;SDS011;52970;46.752;17.108;2022-09-09T15:26:29;1.48;;;1.17;;
13102;SDS011;52970;46.752;17.108;2022-09-09T15:28:55;1.00;;;1.00;;
13102;SDS011;52970;46.752;17.108;2022-09-09T15:31:24;1.45;;;0.98;;
13102;SDS011;52970;46.752;17.108;2022-09-09T15:33:50;1.67;;;1.23;;
13102;SDS011;52970;46.752;17.108;2022-09-09T15:36:20;1.52;;;1.10;;
13102;SDS011;52970;46.752;17.108;2022-09-09T15:38:46;1.73;;;1.05;;
13102;SDS011;52970;46.752;17.108;2022-09-09T15:41:12;1.58;;;1.40;;
13102;SDS011;52970;46.752;17.108;2022-09-09T15:43:38;2.55;;;1.20;;
13102;SDS011;52970;46.752;17.108;2022-09-09T15:46:09;1.10;;;1.00;;
13102;SDS011;52970;46.752;17.108;2022-09-09T15:48:49;1.67;;;1.00;;
13102;SDS011;52970;46.752;17.108;2022-09-09T15:51:15;1.33;;;1.23;;
13102;SDS011;52970;46.752;17.108;2022-09-09T15:53:41;1.20;;;1.05;;
13102;SDS011;52970;46.752;17.108;2022-09-09T15:56:06;1.87;;;0.93;;
13102;SDS011;52970;46.752;17.108;2022-09-09T15:58:35;1.38;;;1.27;;
13102;SDS011;52970;46.752;17.108;2022-09-09T16:03:29;1.05;;;1.00;;
13102;SDS011;52970;46.752;17.108;2022-09-09T16:05:54;0.95;;;0.90;;
13102;SDS011;52970;46.752;17.108;2022-09-09T16:08:20;1.10;;;1.05;;
13102;SDS011;52970;46.752;17.108;2022-09-09T16:10:45;1.40;;;1.30;;
13102;SDS011;52970;46.752;17.108;2022-09-09T16:13:11;1.00;;;1.00;;
13102;SDS011;52970;46.752;17.108;2022-09-09T16:15:38;1.33;;;1.23;;
13102;SDS011;52970;46.752;17.108;2022-09-09T16:18:03;1.13;;;1.03;;
13102;SDS011;52970;46.752;17.108;2022-09-09T16:20:29;2.23;;;1.40;;
13102;SDS011;52970;46.752;17.108;2022-09-09T16:22:55;1.52;;;1.30;;
13102;SDS011;52970;46.752;17.108;2022-09-09T16:25:22;1.40;;;1.30;;
13102;SDS011;52970;46.752;17.108;2022-09-09T16:27:47;1.85;;;1.23;;
13102;SDS011;52970;46.752;17.108;2022-09-09T16:30:12;1.88;;;1.50;;
13102;SDS011;52970;46.752;17.108;2022-09-09T16:32:38;4.38;;;1.38;;
13102;SDS011;52970;46.752;17.108;2022-09-09T16:35:03;2.83;;;2.05;;
13102;SDS011;52970;46.752;17.108;2022-09-09T16:37:29;2.25;;;1.90;;
13102;SDS011;52970;46.752;17.108;2022-09-09T16:39:54;1.88;;;1.77;;
13102;SDS011;52970;46.752;17.108;2022-09-09T16:42:19;2.20;;;2.00;;
13102;SDS011;52970;46.752;17.108;2022-09-09T16:44:45;2.45;;;1.60;;
13102;SDS011;52970;46.752;17.108;2022-09-09T16:47:10;2.85;;;1.80;;
13102;SDS011;52970;46.752;17.108;2022-09-09T16:49:35;1.63;;;1.50;;
13102;SDS011;52970;46.752;17.108;2022-09-09T16:52:01;1.60;;;1.50;;
13102;SDS011;52970;46.752;17.108;2022-09-09T16:54:26;4.05;;;1.65;;
13102;SDS011;52970;46.752;17.108;2022-09-09T16:56:52;1.83;;;1.65;;
13102;SDS011;52970;46.752;17.108;2022-09-09T16:59:18;3.72;;;1.85;;
13102;SDS011;52970;46.752;17.108;2022-09-09T17:01:44;2.80;;;1.40;;